createdAt,value
2023-04-14T00:03:59.727Z,99551.00
2023-04-14T00:09:04.736Z,99550.31
2023-04-14T00:14:07.458Z,99553.38
2023-04-14T00:19:10.497Z,99559.88
2023-04-14T00:24:14.632Z,99546.03
2023-04-14T00:29:17.413Z,99545.59
2023-04-14T00:34:20.192Z,99550.38
2023-04-14T00:39:24.376Z,99552.66
2023-04-14T00:44:27.888Z,99542.19
2023-04-14T00:49:31.305Z,99548.81
2023-04-14T00:54:35.468Z,99538.91
2023-04-14T00:59:38.262Z,99551.31
2023-04-14T01:04:52.856Z,99554.44
2023-04-14T01:09:58.274Z,99552.00
2023-04-14T01:15:06.351Z,99555.06
2023-04-14T01:20:11.881Z,99561.69
2023-04-14T01:25:56.132Z,99568.16
2023-04-14T01:31:03.838Z,99571.25
2023-04-14T01:36:11.526Z,99567.00
2023-04-14T01:41:14.306Z,99578.97
2023-04-14T01:46:17.132Z,99578.97
2023-04-14T01:51:21.652Z,99585.47
2023-04-14T01:56:24.461Z,99579.38
2023-04-14T02:01:27.619Z,99582.19
2023-04-14T02:06:33.308Z,99589.66
2023-04-14T02:11:36.075Z,99584.56
2023-04-14T02:16:39.014Z,99592.75
2023-04-14T02:21:44.168Z,99587.50
2023-04-14T02:26:52.191Z,99577.19
2023-04-14T02:31:58.707Z,99573.53
2023-04-14T02:37:09.126Z,99563.78
2023-04-14T02:42:14.104Z,99548.94
2023-04-14T02:47:21.055Z,99547.38
2023-04-14T02:52:25.634Z,99547.50
2023-04-14T02:57:30.802Z,99551.31
2023-04-14T03:02:33.726Z,99546.94
2023-04-14T03:07:43.615Z,99550.59
2023-04-14T03:12:48.151Z,99557.81
2023-04-14T03:17:55.782Z,99554.38
2023-04-14T03:23:05.028Z,99553.66
2023-04-14T03:28:15.868Z,99540.53
2023-04-14T03:33:23.634Z,99537.72
2023-04-14T03:38:28.754Z,99537.72
2023-04-14T03:43:33.867Z,99542.38
2023-04-14T03:48:44.123Z,99537.16
2023-04-14T03:53:51.875Z,99541.78
2023-04-14T03:58:55.299Z,99546.41
2023-04-14T04:03:58.291Z,99550.78
2023-04-14T04:09:03.014Z,99549.09
2023-04-14T04:14:07.163Z,99546.56
2023-04-14T04:19:13.039Z,99542.19
2023-04-14T04:24:17.986Z,99536.97
2023-04-14T04:29:21.719Z,99545.00
2023-04-14T04:34:25.611Z,99536.22
2023-04-14T04:39:31.780Z,99537.34
2023-04-14T04:44:36.560Z,99546.22
2023-04-14T04:49:40.331Z,99561.59
2023-04-14T04:54:45.461Z,99564.25
2023-04-14T04:59:48.414Z,99571.59
2023-04-14T05:04:51.299Z,99575.25
2023-04-14T05:09:55.510Z,99576.09
2023-04-14T05:14:58.291Z,99572.56
2023-04-14T05:20:02.036Z,99569.03
2023-04-14T05:25:07.930Z,99570.13
2023-04-14T05:30:11.767Z,99572.69
2023-04-14T05:35:14.583Z,99583.53
2023-04-14T05:40:20.501Z,99588.03
2023-04-14T05:45:23.353Z,99576.47
2023-04-14T05:50:26.332Z,99578.44
2023-04-14T05:55:30.484Z,99582.66
2023-04-14T06:00:33.309Z,99580.00
2023-04-14T06:05:36.113Z,99579.88
2023-04-14T06:10:40.299Z,99577.22
2023-04-14T06:15:43.188Z,99580.84
2023-04-14T06:20:46.442Z,99567.72
2023-04-14T06:25:52.221Z,99563.81
2023-04-14T06:30:55.413Z,99564.66
2023-04-14T06:35:58.262Z,99558.47
2023-04-14T06:41:02.550Z,99550.28
2023-04-14T06:46:05.805Z,99550.16
2023-04-14T06:51:10.825Z,99563.41
2023-04-14T06:56:15.303Z,99580.06
2023-04-14T07:01:18.202Z,99571.91
2023-04-14T07:06:21.199Z,99572.09
2023-04-14T07:11:25.307Z,99569.94
2023-04-14T07:16:28.241Z,99572.38
2023-04-14T07:21:31.860Z,99572.63
2023-04-14T07:26:36.315Z,99571.22
2023-04-14T07:31:40.168Z,99582.78
2023-04-14T07:36:43.340Z,99604.31
2023-04-14T07:41:47.935Z,99586.22
2023-04-14T07:46:50.863Z,99590.22
2023-04-14T07:51:53.806Z,99593.28
2023-04-14T07:56:57.967Z,99605.88
2023-04-14T08:02:01.345Z,99590.97
2023-04-14T08:07:04.289Z,99586.28
2023-04-14T08:12:08.799Z,99590.59
2023-04-14T08:17:11.781Z,99588.16
2023-04-14T08:22:14.521Z,99586.53
2023-04-14T08:27:18.710Z,99583.22
2023-04-14T08:32:22.243Z,99574.91
2023-04-14T08:37:25.727Z,99584.00
2023-04-14T08:42:30.120Z,99574.97
2023-04-14T08:47:33.050Z,99564.00
2023-04-14T08:52:36.483Z,99568.94
2023-04-14T08:57:42.340Z,99574.78
2023-04-14T09:02:45.269Z,99584.94
2023-04-14T09:07:48.308Z,99581.88
2023-04-14T09:12:52.672Z,99584.00
2023-04-14T09:17:56.107Z,99584.88
2023-04-14T09:22:58.965Z,99588.00
2023-04-14T09:28:03.261Z,99586.03
2023-04-14T09:33:07.308Z,99570.53
2023-04-14T09:38:10.368Z,99570.41
2023-04-14T09:43:27.334Z,99575.50
2023-04-14T09:48:30.218Z,99578.63
2023-04-14T09:53:33.897Z,99582.72
2023-04-14T09:58:38.627Z,99581.78
2023-04-14T10:03:42.276Z,99587.25
2023-04-14T10:08:46.293Z,99586.25
2023-04-14T10:13:51.254Z,99599.06
2023-04-14T10:18:54.503Z,99576.44
2023-04-14T10:23:58.035Z,99593.78
2023-04-14T10:29:03.462Z,99590.16
2023-04-14T10:34:10.810Z,99583.81
2023-04-14T10:39:13.912Z,99577.31
2023-04-14T10:44:29.355Z,99565.63
2023-04-14T10:49:33.175Z,99569.28
2023-04-14T10:54:53.209Z,99570.84
2023-04-14T10:59:59.173Z,99564.91
2023-04-14T11:05:06.564Z,99577.59
2023-04-14T11:10:37.498Z,99558.09
2023-04-14T11:15:51.984Z,99552.31
2023-04-14T11:20:54.983Z,99554.72
2023-04-14T11:25:58.635Z,99548.06
2023-04-14T11:31:03.679Z,99546.00
2023-04-14T11:36:07.706Z,99535.69
2023-04-14T11:41:10.675Z,99534.09
2023-04-14T11:46:15.463Z,99519.84
2023-04-14T11:51:21.743Z,99526.69
2023-04-14T11:56:24.808Z,99523.09
2023-04-14T12:01:29.805Z,99509.84
2023-04-14T12:06:36.448Z,99518.44
2023-04-14T12:11:39.304Z,99512.78
2023-04-14T12:16:43.608Z,99507.03
2023-04-14T12:21:52.473Z,99503.53
2023-04-14T12:26:56.997Z,99503.22
2023-04-14T12:32:01.593Z,99487.56
2023-04-14T12:37:08.293Z,99493.34
2023-04-14T12:42:11.666Z,99490.81
2023-04-14T12:47:15.810Z,99474.16
2023-04-14T12:52:33.372Z,99475.69
2023-04-14T12:57:36.559Z,99468.19
2023-04-14T13:02:41.097Z,99476.97
2023-04-14T13:07:44.926Z,99473.44
2023-04-14T13:12:47.772Z,99468.78
2023-04-14T13:17:52.116Z,99461.44
2023-04-14T13:22:54.902Z,99460.44
2023-04-14T13:27:57.764Z,99452.94
2023-04-14T13:33:01.969Z,99455.34
2023-04-14T13:38:05.588Z,99442.78
2023-04-14T13:43:09.550Z,99436.28
2023-04-14T13:48:13.994Z,99441.91
2023-04-14T13:53:17.210Z,99442.50
2023-04-14T13:58:20.070Z,99440.09
2023-04-14T14:03:25.279Z,99440.09
2023-04-14T14:08:30.230Z,99437.66
2023-04-14T14:13:33.451Z,99444.03
2023-04-14T14:18:38.309Z,99442.50
2023-04-14T14:23:41.407Z,99441.66
2023-04-14T14:28:47.334Z,99436.81
2023-04-14T14:33:51.724Z,99441.34
2023-04-14T14:38:54.518Z,99439.25
2023-04-14T14:43:58.593Z,99434.03
2023-04-14T14:49:03.704Z,99441.34
2023-04-14T14:54:12.487Z,99441.50
2023-04-14T14:59:16.242Z,99439.38
2023-04-14T15:04:20.458Z,99437.78
2023-04-14T15:09:23.283Z,99438.38
2023-04-14T15:14:26.292Z,99438.50
2023-04-14T15:19:30.476Z,99441.88
2023-04-14T15:24:34.430Z,99449.25
2023-04-14T15:29:37.273Z,99440.47
2023-04-14T15:34:41.563Z,99433.00
2023-04-14T15:39:44.395Z,99442.03
2023-04-14T15:44:47.322Z,99447.41
2023-04-14T15:49:52.364Z,99443.03
2023-04-14T15:55:12.182Z,99453.47
2023-04-14T16:00:15.988Z,99453.63
2023-04-14T16:05:20.323Z,99448.09
2023-04-14T16:10:23.240Z,99456.47
2023-04-14T16:15:27.346Z,99454.47
2023-04-14T16:20:31.752Z,99449.22
2023-04-14T16:25:35.077Z,99456.84
2023-04-14T16:30:38.387Z,99453.44
2023-04-14T16:35:43.291Z,99453.31
2023-04-14T16:40:46.382Z,99447.84
2023-04-14T16:45:49.247Z,99468.59
2023-04-14T16:50:53.894Z,99462.09
2023-04-14T16:56:03.497Z,99471.44
2023-04-14T17:01:07.291Z,99479.19
2023-04-14T17:06:11.750Z,99470.59
2023-04-14T17:11:15.315Z,99467.63
2023-04-14T17:16:18.121Z,99474.84
2023-04-14T17:21:22.281Z,99468.19
2023-04-14T17:26:25.041Z,99463.25
2023-04-14T17:31:28.106Z,99459.19
2023-04-14T17:36:32.300Z,99461.41
2023-04-14T17:41:35.431Z,99460.13
2023-04-14T17:46:38.379Z,99462.38
2023-04-14T17:51:42.623Z,99464.91
2023-04-14T17:56:45.412Z,99465.06
2023-04-14T18:01:48.375Z,99460.69
2023-04-14T18:06:52.688Z,99463.22
2023-04-14T18:11:56.145Z,99460.84
2023-04-14T18:29:21.282Z,99468.88
2023-04-14T18:34:24.146Z,99461.81
2023-04-14T18:39:28.744Z,99457.56
2023-04-14T18:44:31.687Z,99452.34
2023-04-14T18:49:34.486Z,99459.00
2023-04-14T18:54:38.879Z,99463.22
2023-04-14T18:59:41.833Z,99471.28
2023-04-14T19:04:44.927Z,99464.91
2023-04-14T19:09:49.098Z,99459.69
2023-04-14T19:14:51.834Z,99459.41
2023-04-14T19:19:54.845Z,99459.41
2023-04-14T19:24:59.006Z,99451.22
2023-04-14T19:30:01.968Z,99450.13
2023-04-14T19:35:06.448Z,99454.63
2023-04-14T19:40:11.351Z,99457.00
2023-04-14T19:45:14.095Z,99450.50
2023-04-14T19:50:17.145Z,99443.13
2023-04-14T19:55:21.314Z,99442.72
2023-04-14T20:00:24.825Z,99443.00
2023-04-14T20:05:27.749Z,99429.00
2023-04-14T20:10:31.933Z,99429.44
2023-04-14T20:15:34.786Z,99426.03
2023-04-14T20:20:40.182Z,99427.84
2023-04-14T20:25:45.522Z,99428.00
2023-04-14T20:30:50.851Z,99428.16
2023-04-14T20:35:54.141Z,99418.09
2023-04-14T20:40:59.044Z,99407.09
2023-04-14T20:46:02.102Z,99413.72
2023-04-14T20:51:05.300Z,99405.13
2023-04-14T20:56:09.446Z,99408.50
2023-04-14T21:01:12.252Z,99404.13
2023-04-14T21:06:16.064Z,99404.13
2023-04-14T21:11:20.207Z,99380.69
2023-04-14T21:16:23.088Z,99388.84
2023-04-14T21:21:26.148Z,99387.72
2023-04-14T21:26:30.364Z,99389.28
2023-04-14T21:31:33.461Z,99378.53
2023-04-14T21:36:36.720Z,99383.59
2023-04-14T21:41:40.899Z,99377.38
2023-04-14T21:46:43.656Z,99385.97
2023-04-14T21:51:46.541Z,99383.97
2023-04-14T21:56:50.673Z,99379.88
2023-04-14T22:01:53.459Z,99380.72
2023-04-14T22:06:57.353Z,99390.47
2023-04-14T22:12:01.496Z,99373.34
2023-04-14T22:17:04.484Z,99365.28
2023-04-14T22:22:07.478Z,99370.66
2023-04-14T22:27:11.655Z,99368.66
2023-04-14T22:32:14.427Z,99361.31
2023-04-14T22:37:17.166Z,99366.53
2023-04-14T22:42:21.313Z,99359.16
2023-04-14T22:47:24.212Z,99354.78
2023-04-14T22:52:27.865Z,99349.94
2023-04-14T22:57:33.120Z,99356.91
2023-04-14T23:02:36.679Z,99347.72
2023-04-14T23:07:39.862Z,99347.25
2023-04-14T23:12:43.949Z,99352.63
2023-04-14T23:17:46.951Z,99346.72
2023-04-14T23:22:49.756Z,99343.88
2023-04-14T23:27:53.897Z,99335.66
2023-04-14T23:32:56.932Z,99332.97
2023-04-14T23:38:02.307Z,99332.28
2023-04-14T23:43:06.506Z,99335.66
2023-04-14T23:48:09.435Z,99323.22
2023-04-14T23:53:12.327Z,99314.31
2023-04-14T23:58:26.161Z,99307.78
